createdAt,value
2022-08-11T00:01:29.515Z,73.70
2022-08-11T00:04:05.170Z,73.81
2022-08-11T00:06:39.406Z,73.70
2022-08-11T00:09:21.501Z,73.63
2022-08-11T00:11:58.822Z,73.75
2022-08-11T00:14:35.993Z,73.84
2022-08-11T00:17:14.080Z,73.87
2022-08-11T00:20:14.529Z,73.85
2022-08-11T00:22:40.261Z,74.05
2022-08-11T00:25:18.391Z,74.13
2022-08-11T00:27:48.676Z,74.13
2022-08-11T00:30:18.229Z,74.24
2022-08-11T00:32:56.487Z,74.40
2022-08-11T00:35:53.887Z,74.58
2022-08-11T00:38:24.969Z,74.71
2022-08-11T00:41:34.024Z,74.66
2022-08-11T00:44:20.650Z,74.79
2022-08-11T00:47:16.915Z,74.91
2022-08-11T00:50:29.574Z,75.00
2022-08-11T00:53:30.963Z,75.40
2022-08-11T00:56:39.814Z,75.35
2022-08-11T00:59:45.714Z,75.35
2022-08-11T01:03:03.007Z,75.69
2022-08-11T01:05:31.313Z,76.13
2022-08-11T01:08:37.063Z,76.50
2022-08-11T01:12:02.527Z,76.68
2022-08-11T01:15:27.292Z,76.90
2022-08-11T01:18:40.618Z,76.96
2022-08-11T01:21:55.264Z,77.03
2022-08-11T01:25:21.678Z,77.24
2022-08-11T01:29:03.950Z,77.42
2022-08-11T01:32:13.559Z,77.87
2022-08-11T01:35:25.727Z,77.91
2022-08-11T01:38:31.553Z,77.98
2022-08-11T01:42:01.513Z,78.27
2022-08-11T01:44:52.823Z,78.53
2022-08-11T01:47:52.984Z,78.52
2022-08-11T01:50:32.084Z,78.68
2022-08-11T01:53:40.401Z,78.75
2022-08-11T01:56:47.067Z,78.83
2022-08-11T01:59:34.429Z,78.99
2022-08-11T02:02:48.536Z,79.08
2022-08-11T02:05:42.872Z,79.50
2022-08-11T02:08:20.583Z,79.56
2022-08-11T02:11:30.478Z,79.72
2022-08-11T02:14:11.869Z,79.98
2022-08-11T02:17:02.752Z,80.13
2022-08-11T02:20:20.904Z,80.39
2022-08-11T02:24:05.990Z,80.64
2022-08-11T02:26:25.720Z,80.85
2022-08-11T02:29:19.753Z,81.10
2022-08-11T02:32:44.884Z,81.34
2022-08-11T02:35:27.031Z,81.49
2022-08-11T02:38:15.378Z,81.58
2022-08-11T02:41:31.527Z,81.64
2022-08-11T02:44:49.247Z,81.75
2022-08-11T02:48:05.094Z,82.03
2022-08-11T02:51:22.082Z,81.94
2022-08-11T02:54:26.438Z,81.90
2022-08-11T02:57:33.517Z,81.95
2022-08-11T03:00:12.406Z,81.97
2022-08-11T03:02:56.046Z,81.91
2022-08-11T03:05:45.560Z,81.87
2022-08-11T03:08:52.633Z,82.03
2022-08-11T03:12:25.740Z,82.34
2022-08-11T03:15:26.204Z,82.64
2022-08-11T03:18:06.885Z,82.90
2022-08-11T03:21:06.585Z,82.91
2022-08-11T03:24:06.198Z,83.16
2022-08-11T03:27:22.987Z,83.74
2022-08-11T03:30:04.967Z,84.02
2022-08-11T03:33:20.528Z,84.05
2022-08-11T03:36:20.897Z,83.84
2022-08-11T03:39:14.142Z,83.96
2022-08-11T03:42:14.981Z,84.34
2022-08-11T03:45:07.657Z,84.43
2022-08-11T03:47:41.872Z,84.73
2022-08-11T03:50:55.405Z,84.84
2022-08-11T03:53:43.627Z,84.66
2022-08-11T03:56:33.367Z,84.80
2022-08-11T03:59:38.319Z,84.83
2022-08-11T04:03:00.839Z,84.51
2022-08-11T04:06:02.842Z,84.14
2022-08-11T04:08:43.312Z,84.19
2022-08-11T04:12:03.418Z,84.07
2022-08-11T04:15:34.423Z,84.24
2022-08-11T04:18:36.060Z,84.60
2022-08-11T04:21:53.795Z,85.25
2022-08-11T04:24:58.528Z,85.62
2022-08-11T04:30:03.316Z,85.86
2022-08-11T04:33:29.758Z,86.34
2022-08-11T04:37:11.266Z,86.56
2022-08-11T04:40:11.858Z,86.85
2022-08-11T04:43:23.647Z,87.21
2022-08-11T04:46:35.234Z,87.45
2022-08-11T04:50:00.995Z,87.58
2022-08-11T04:53:25.238Z,87.48
2022-08-11T04:56:43.594Z,87.75
2022-08-11T05:00:06.859Z,87.75
2022-08-11T05:03:12.904Z,87.77
2022-08-11T05:06:10.834Z,87.97
2022-08-11T05:09:14.566Z,88.11
2022-08-11T05:11:46.075Z,87.87
2022-08-11T05:14:33.167Z,87.79
2022-08-11T05:17:29.745Z,87.62
2022-08-11T05:20:16.998Z,87.68
2022-08-11T05:23:11.238Z,87.58
2022-08-11T05:26:44.378Z,87.27
2022-08-11T05:29:19.850Z,86.87
2022-08-11T05:32:19.258Z,86.60
2022-08-11T05:34:56.962Z,86.14
2022-08-11T05:37:38.837Z,86.00
2022-08-11T05:40:33.780Z,85.58
2022-08-11T05:43:31.940Z,85.16
2022-08-11T05:46:25.813Z,84.74
2022-08-11T05:49:14.318Z,84.66
2022-08-11T05:52:05.367Z,84.19
2022-08-11T05:55:07.266Z,83.76
2022-08-11T05:57:50.952Z,83.41
2022-08-11T06:00:21.118Z,83.32
2022-08-11T06:03:00.694Z,83.25
2022-08-11T06:05:43.305Z,82.95
2022-08-11T06:08:14.758Z,82.70
2022-08-11T06:10:46.116Z,82.46
2022-08-11T06:13:17.698Z,82.36
2022-08-11T06:15:53.068Z,82.31
2022-08-11T06:18:22.704Z,82.08
2022-08-11T06:20:55.985Z,82.05
2022-08-11T06:23:36.113Z,82.03
2022-08-11T06:26:13.272Z,81.88
2022-08-11T06:28:45.828Z,81.77
2022-08-11T06:31:25.792Z,81.67
2022-08-11T06:34:02.093Z,81.32
2022-08-11T06:37:05.081Z,81.01
2022-08-11T06:39:55.018Z,81.01
2022-08-11T06:42:37.299Z,80.98
2022-08-11T06:45:40.867Z,80.61
2022-08-11T06:48:19.004Z,80.75
2022-08-11T06:51:12.807Z,80.47
2022-08-11T06:53:56.402Z,80.07
2022-08-11T06:57:29.262Z,79.77
2022-08-11T07:00:07.534Z,79.53
2022-08-11T07:03:12.342Z,79.49
2022-08-11T07:05:48.648Z,79.06
2022-08-11T07:08:57.447Z,78.75
2022-08-11T07:12:18.830Z,78.67
2022-08-11T07:15:15.097Z,78.64
2022-08-11T07:18:12.395Z,78.36
2022-08-11T07:21:02.439Z,77.98
2022-08-11T07:23:55.356Z,77.87
2022-08-11T07:26:45.725Z,77.75
2022-08-11T07:29:16.399Z,77.88
2022-08-11T07:31:51.486Z,77.82
2022-08-11T07:34:40.854Z,77.66
2022-08-11T07:37:18.017Z,77.55
2022-08-11T07:39:49.364Z,77.37
2022-08-11T07:42:35.977Z,77.27
2022-08-11T07:45:28.322Z,77.12
2022-08-11T07:48:15.715Z,76.43
2022-08-11T07:51:03.695Z,75.48
2022-08-11T07:53:34.604Z,74.77
2022-08-11T07:56:38.605Z,74.11
2022-08-11T08:00:00.926Z,73.29
2022-08-11T08:02:40.221Z,72.65
2022-08-11T08:05:28.033Z,72.01
2022-08-11T08:08:15.650Z,72.12
2022-08-11T08:11:04.983Z,71.60
2022-08-11T08:13:54.579Z,71.50
2022-08-11T08:16:42.050Z,71.07
2022-08-11T08:19:17.300Z,70.86
2022-08-11T08:21:47.339Z,70.65
2022-08-11T08:24:16.721Z,70.39
2022-08-11T08:27:00.987Z,70.19
2022-08-11T08:29:53.849Z,70.06
2022-08-11T08:32:23.842Z,69.97
2022-08-11T08:34:55.759Z,67.97
2022-08-11T08:37:47.094Z,67.34
2022-08-11T08:40:15.901Z,68.01
2022-08-11T08:42:59.038Z,67.78
2022-08-11T08:45:28.787Z,67.21
2022-08-11T08:48:04.885Z,67.09
2022-08-11T08:50:57.699Z,66.15
2022-08-11T08:53:32.983Z,65.73
2022-08-11T08:56:03.334Z,65.44
2022-08-11T08:58:35.162Z,65.22
2022-08-11T09:01:04.777Z,64.89
2022-08-11T09:04:04.737Z,64.70
2022-08-11T09:06:31.490Z,64.38
2022-08-11T09:09:00.901Z,64.45
2022-08-11T09:11:55.850Z,64.06
2022-08-11T09:14:54.324Z,63.07
2022-08-11T09:17:25.594Z,62.35
2022-08-11T09:20:04.357Z,62.01
2022-08-11T09:26:18.087Z,60.66
2022-08-11T09:28:51.880Z,59.18
2022-08-11T09:31:22.908Z,59.55
2022-08-11T09:33:55.534Z,59.68
2022-08-11T09:36:43.659Z,59.25
2022-08-11T09:39:32.694Z,58.80
2022-08-11T09:42:04.341Z,58.57
2022-08-11T09:44:51.260Z,57.94
2022-08-11T09:47:35.389Z,57.83
2022-08-11T09:50:05.599Z,58.40
2022-08-11T09:52:48.271Z,58.35
2022-08-11T09:55:27.894Z,58.30
2022-08-11T09:58:41.670Z,57.84
2022-08-11T10:01:03.915Z,57.30
2022-08-11T10:03:40.553Z,56.99
2022-08-11T10:06:34.212Z,56.49
2022-08-11T10:09:07.040Z,55.94
2022-08-11T10:11:37.516Z,55.52
2022-08-11T10:14:32.565Z,54.94
2022-08-11T10:17:08.359Z,54.29
2022-08-11T10:19:38.741Z,52.52
2022-08-11T10:22:26.999Z,52.87
2022-08-11T10:25:19.634Z,52.99
2022-08-11T10:28:28.776Z,53.57
2022-08-11T10:31:10.550Z,53.55
2022-08-11T10:34:00.378Z,52.95
2022-08-11T10:39:22.275Z,53.48
2022-08-11T10:42:14.460Z,53.41
2022-08-11T10:44:58.217Z,53.30
2022-08-11T10:47:38.594Z,52.98
2022-08-11T10:50:43.916Z,52.17
2022-08-11T10:53:33.175Z,51.64
2022-08-11T10:56:23.875Z,51.17
2022-08-11T10:58:58.492Z,50.60
2022-08-11T11:01:36.665Z,50.32
2022-08-11T11:04:14.256Z,50.50
2022-08-11T11:07:22.726Z,50.44
2022-08-11T11:09:58.662Z,48.76
2022-08-11T11:13:04.755Z,49.07
2022-08-11T11:15:54.904Z,48.76
2022-08-11T11:18:36.068Z,48.34
2022-08-11T11:21:18.747Z,48.21
2022-08-11T11:24:12.686Z,48.85
2022-08-11T11:27:14.752Z,49.04
2022-08-11T11:30:07.718Z,48.95
2022-08-11T11:32:36.148Z,49.43
2022-08-11T11:35:18.612Z,49.56
2022-08-11T11:38:03.849Z,49.27
2022-08-11T11:40:37.307Z,49.38
2022-08-11T11:43:06.919Z,48.90
2022-08-11T11:45:35.969Z,48.25
2022-08-11T11:48:06.217Z,47.55
2022-08-11T11:50:38.102Z,46.77
2022-08-11T11:53:11.385Z,46.76
2022-08-11T11:55:41.458Z,45.22
2022-08-11T11:58:29.100Z,44.04
2022-08-11T12:01:19.950Z,44.85
2022-08-11T12:03:54.661Z,45.06
2022-08-11T12:06:28.102Z,44.40
2022-08-11T12:08:59.224Z,44.97
2022-08-11T12:11:49.051Z,45.10
2022-08-11T12:14:21.253Z,45.27
2022-08-11T12:16:50.429Z,45.61
2022-08-11T12:19:24.881Z,46.19
2022-08-11T12:22:16.669Z,46.12
2022-08-11T12:25:05.428Z,46.29
2022-08-11T12:27:34.244Z,45.97
2022-08-11T12:30:11.243Z,45.42
2022-08-11T12:32:42.988Z,45.24
2022-08-11T12:35:15.795Z,45.24
2022-08-11T12:38:10.690Z,44.84
2022-08-11T12:41:16.991Z,44.69
2022-08-11T12:44:06.705Z,42.05
2022-08-11T12:46:38.000Z,41.23
2022-08-11T12:49:33.387Z,41.61
2022-08-11T12:52:15.582Z,41.60
2022-08-11T12:54:57.964Z,42.22
2022-08-11T12:57:56.356Z,42.84
2022-08-11T13:00:48.827Z,43.40
2022-08-11T13:03:40.158Z,43.69
2022-08-11T13:06:09.623Z,44.33
2022-08-11T13:08:40.422Z,44.32
2022-08-11T13:11:57.018Z,44.13
2022-08-11T13:14:20.118Z,43.82
2022-08-11T13:17:08.276Z,43.57
2022-08-11T13:19:38.372Z,42.13
2022-08-11T13:22:07.515Z,40.62
2022-08-11T13:24:36.877Z,40.64
2022-08-11T13:27:07.165Z,40.20
2022-08-11T13:29:37.551Z,40.31
2022-08-11T13:32:06.609Z,40.47
2022-08-11T13:34:41.724Z,41.55
2022-08-11T13:37:14.846Z,42.37
2022-08-11T13:39:48.758Z,42.61
2022-08-11T13:42:20.601Z,42.55
2022-08-11T13:44:49.851Z,42.83
2022-08-11T13:47:23.783Z,41.99
2022-08-11T13:49:53.049Z,40.97
2022-08-11T13:52:21.830Z,40.32
2022-08-11T13:54:53.434Z,39.73
2022-08-11T13:58:08.059Z,38.70
2022-08-11T14:00:12.990Z,38.98
2022-08-11T14:02:55.981Z,39.78
2022-08-11T14:05:32.042Z,40.28
2022-08-11T14:08:04.530Z,41.45
2022-08-11T14:10:37.851Z,41.94
2022-08-11T14:13:41.583Z,41.78
2022-08-11T14:16:26.358Z,42.51
2022-08-11T14:19:04.618Z,42.25
2022-08-11T14:22:06.702Z,42.06
2022-08-11T14:24:49.611Z,42.04
2022-08-11T14:28:22.104Z,41.69
2022-08-11T14:30:35.163Z,41.38
2022-08-11T14:33:16.475Z,40.90
2022-08-11T14:35:49.442Z,40.57
2022-08-11T14:38:20.053Z,38.97
2022-08-11T14:41:08.246Z,37.55
2022-08-11T14:44:13.277Z,37.38
2022-08-11T14:47:44.110Z,37.19
2022-08-11T14:50:42.656Z,38.61
2022-08-11T14:53:39.995Z,38.63
2022-08-11T14:56:37.408Z,38.69
2022-08-11T14:59:07.549Z,39.04
2022-08-11T15:01:59.529Z,38.91
2022-08-11T15:04:36.014Z,38.86
2022-08-11T15:07:16.971Z,39.00
2022-08-11T15:10:11.747Z,38.64
2022-08-11T15:12:37.805Z,38.46
2022-08-11T15:15:28.014Z,38.18
2022-08-11T15:18:00.574Z,38.26
2022-08-11T15:20:53.852Z,38.06
2022-08-11T15:23:41.101Z,37.75
2022-08-11T15:26:14.239Z,37.66
2022-08-11T15:29:09.264Z,37.42
2022-08-11T15:31:49.094Z,37.31
2022-08-11T15:34:42.525Z,37.00
2022-08-11T15:37:26.945Z,36.80
2022-08-11T15:40:31.300Z,37.17
2022-08-11T15:43:47.039Z,37.21
2022-08-11T15:46:44.357Z,36.84
2022-08-11T15:50:11.882Z,36.80
2022-08-11T15:52:31.974Z,36.34
2022-08-11T15:55:05.562Z,36.27
2022-08-11T15:57:57.916Z,35.98
2022-08-11T16:00:46.503Z,35.68
2022-08-11T16:04:06.518Z,35.21
2022-08-11T16:06:25.997Z,35.36
2022-08-11T16:08:59.735Z,35.50
2022-08-11T16:11:29.221Z,35.82
2022-08-11T16:14:17.860Z,35.76
2022-08-11T16:16:48.372Z,35.44
2022-08-11T16:19:20.103Z,35.79
2022-08-11T16:21:52.769Z,35.76
2022-08-11T16:27:04.429Z,35.46
2022-08-11T16:27:14.682Z,35.58
2022-08-11T16:29:48.073Z,35.38
2022-08-11T16:32:23.521Z,35.33
2022-08-11T16:35:21.465Z,35.23
2022-08-11T16:38:12.345Z,35.23
2022-08-11T16:40:42.787Z,35.13
2022-08-11T16:43:36.002Z,34.94
2022-08-11T16:46:25.802Z,34.89
2022-08-11T16:48:57.007Z,34.84
2022-08-11T16:51:25.825Z,34.64
2022-08-11T16:54:04.749Z,34.21
2022-08-11T16:56:45.935Z,34.33
2022-08-11T16:59:37.441Z,34.09
2022-08-11T17:02:40.358Z,34.62
2022-08-11T17:05:31.467Z,35.06
2022-08-11T17:08:22.776Z,34.78
2022-08-11T17:11:16.701Z,35.07
2022-08-11T17:14:01.874Z,35.05
2022-08-11T17:16:39.049Z,35.63
2022-08-11T17:19:18.674Z,36.17
2022-08-11T17:22:26.272Z,36.92
2022-08-11T17:24:57.321Z,37.54
2022-08-11T17:27:27.450Z,38.12
2022-08-11T17:30:04.116Z,38.62
2022-08-11T17:33:00.805Z,39.26
2022-08-11T17:35:36.182Z,40.01
2022-08-11T17:38:12.670Z,40.66
2022-08-11T17:41:23.035Z,41.19
2022-08-11T17:44:13.497Z,41.87
2022-08-11T17:47:05.898Z,42.51
2022-08-11T17:49:39.435Z,43.10
2022-08-11T17:52:33.237Z,43.44
2022-08-11T17:55:51.505Z,43.96
2022-08-11T17:58:33.479Z,44.48
2022-08-11T18:01:09.244Z,45.18
2022-08-11T18:03:41.945Z,45.68
2022-08-11T18:06:33.815Z,46.18
2022-08-11T18:09:28.236Z,46.72
2022-08-11T18:12:17.946Z,47.06
2022-08-11T18:15:12.420Z,47.58
2022-08-11T18:18:00.805Z,48.10
2022-08-11T18:20:48.359Z,48.63
2022-08-11T18:23:46.708Z,49.08
2022-08-11T18:26:44.541Z,49.48
2022-08-11T18:29:41.896Z,49.77
2022-08-11T18:32:49.581Z,50.31
2022-08-11T18:35:42.625Z,50.78
2022-08-11T18:38:34.802Z,51.03
2022-08-11T18:41:26.287Z,51.41
2022-08-11T18:44:19.704Z,51.85
2022-08-11T18:47:10.370Z,52.00
2022-08-11T18:50:05.044Z,52.27
2022-08-11T18:52:54.237Z,52.60
2022-08-11T18:55:42.451Z,53.03
2022-08-11T18:58:34.436Z,53.26
2022-08-11T19:01:25.119Z,53.61
2022-08-11T19:04:17.196Z,54.03
2022-08-11T19:07:11.379Z,54.31
2022-08-11T19:10:02.243Z,54.61
2022-08-11T19:12:54.933Z,54.78
2022-08-11T19:15:43.206Z,55.04
2022-08-11T19:18:38.098Z,55.25
2022-08-11T19:21:28.394Z,55.48
2022-08-11T19:24:21.261Z,55.72
2022-08-11T19:27:12.210Z,55.86
2022-08-11T19:30:07.245Z,56.08
2022-08-11T19:33:02.290Z,56.37
2022-08-11T19:35:50.622Z,56.57
2022-08-11T19:38:39.900Z,56.74
2022-08-11T19:41:51.800Z,57.02
2022-08-11T19:44:36.527Z,57.28
2022-08-11T19:47:24.002Z,57.53
2022-08-11T19:50:12.746Z,57.73
2022-08-11T19:53:00.770Z,57.99
2022-08-11T19:55:49.512Z,58.33
2022-08-11T19:58:38.670Z,58.54
2022-08-11T20:01:25.729Z,58.71
2022-08-11T20:04:13.185Z,58.98
2022-08-11T20:07:01.184Z,59.40
2022-08-11T20:10:04.845Z,59.71
2022-08-11T20:12:56.733Z,60.09
2022-08-11T20:15:45.589Z,60.41
2022-08-11T20:18:34.733Z,60.58
2022-08-11T20:21:26.243Z,60.81
2022-08-11T20:24:21.330Z,61.16
2022-08-11T20:27:24.099Z,61.37
2022-08-11T20:30:15.896Z,61.68
2022-08-11T20:33:04.187Z,61.97
2022-08-11T20:35:54.854Z,62.16
2022-08-11T20:38:44.539Z,62.40
2022-08-11T20:41:32.558Z,62.71
2022-08-11T20:44:41.085Z,62.95
2022-08-11T20:47:29.858Z,63.18
2022-08-11T20:50:20.456Z,63.37
2022-08-11T20:53:10.343Z,63.65
2022-08-11T20:55:58.808Z,63.95
2022-08-11T20:59:13.890Z,64.18
2022-08-11T21:01:57.783Z,64.37
2022-08-11T21:04:54.012Z,64.90
2022-08-11T21:07:57.241Z,65.25
2022-08-11T21:10:52.279Z,65.39
2022-08-11T21:13:46.378Z,65.63
2022-08-11T21:16:40.151Z,66.01
2022-08-11T21:20:06.693Z,66.36
2022-08-11T21:23:05.201Z,66.52
2022-08-11T21:26:01.488Z,66.63
2022-08-11T21:28:52.162Z,66.91
2022-08-11T21:31:40.320Z,67.20
2022-08-11T21:34:30.409Z,67.54
2022-08-11T21:37:20.411Z,67.79
2022-08-11T21:40:13.563Z,67.90
2022-08-11T21:43:07.134Z,68.19
2022-08-11T21:45:57.188Z,68.32
2022-08-11T21:48:46.341Z,68.72
2022-08-11T21:51:33.499Z,68.85
2022-08-11T21:54:21.683Z,69.10
2022-08-11T21:57:10.249Z,69.25
2022-08-11T22:00:07.283Z,69.56
2022-08-11T22:02:56.429Z,70.00
2022-08-11T22:05:45.222Z,70.24
2022-08-11T22:08:32.698Z,70.50
2022-08-11T22:11:31.545Z,70.76
2022-08-11T22:14:20.773Z,71.05
2022-08-11T22:17:08.861Z,71.38
2022-08-11T22:19:58.215Z,71.65
2022-08-11T22:22:53.278Z,71.93
2022-08-11T22:25:55.044Z,72.07
2022-08-11T22:28:48.068Z,72.37
2022-08-11T22:31:37.026Z,72.81
2022-08-11T22:34:25.633Z,72.83
2022-08-11T22:37:26.922Z,72.76
2022-08-11T22:40:16.739Z,73.12
2022-08-11T22:43:04.168Z,73.31
2022-08-11T22:45:51.870Z,73.20
2022-08-11T22:48:39.892Z,73.44
2022-08-11T22:51:27.915Z,73.61
2022-08-11T22:54:16.537Z,73.76
2022-08-11T22:57:04.111Z,73.90
2022-08-11T22:59:52.346Z,74.05
2022-08-11T23:02:40.425Z,74.38
2022-08-11T23:05:28.259Z,74.54
2022-08-11T23:08:16.432Z,74.73
2022-08-11T23:11:08.686Z,75.09
2022-08-11T23:13:56.221Z,75.33
2022-08-11T23:16:44.177Z,75.58
2022-08-11T23:20:07.299Z,75.64
2022-08-11T23:22:49.778Z,75.85
2022-08-11T23:25:38.028Z,76.22
2022-08-11T23:28:28.597Z,76.35
2022-08-11T23:31:17.073Z,76.40
2022-08-11T23:34:37.016Z,76.57
2022-08-11T23:37:18.502Z,76.76
2022-08-11T23:40:05.413Z,76.93
2022-08-11T23:42:57.479Z,77.12
2022-08-11T23:45:46.056Z,77.10
2022-08-11T23:48:35.603Z,77.44
2022-08-11T23:51:24.928Z,77.81
2022-08-11T23:54:31.623Z,77.99
2022-08-11T23:57:23.222Z,78.07
